sensor_id;sensor_type;location;lat;lon;timestamp;pressure;altitude;pressure_sealevel;temperature
33267;BMP180;19638;49.080;11.896;2022-10-31T00:03:01;96769.00;;;9.50
33267;BMP180;19638;49.080;11.896;2022-10-31T00:07:04;96764.00;;;9.50
33267;BMP180;19638;49.080;11.896;2022-10-31T00:11:09;96773.00;;;9.50
33267;BMP180;19638;49.080;11.896;2022-10-31T00:15:12;96778.00;;;9.50
33267;BMP180;19638;49.080;11.896;2022-10-31T00:19:16;96773.00;;;9.40
33267;BMP180;19638;49.080;11.896;2022-10-31T00:23:50;96774.00;;;9.30
33267;BMP180;19638;49.080;11.896;2022-10-31T00:27:54;96768.00;;;9.30
33267;BMP180;19638;49.080;11.896;2022-10-31T00:31:57;96758.00;;;9.30
33267;BMP180;19638;49.080;11.896;2022-10-31T00:40:39;96765.00;;;9.40
33267;BMP180;19638;49.080;11.896;2022-10-31T00:44:42;96767.00;;;9.40
33267;BMP180;19638;49.080;11.896;2022-10-31T00:48:45;96767.00;;;9.40
33267;BMP180;19638;49.080;11.896;2022-10-31T00:52:48;96770.00;;;9.30
33267;BMP180;19638;49.080;11.896;2022-10-31T00:56:52;96764.00;;;9.30
33267;BMP180;19638;49.080;11.896;2022-10-31T01:01:29;96765.00;;;9.30
33267;BMP180;19638;49.080;11.896;2022-10-31T01:05:32;96763.00;;;9.30
33267;BMP180;19638;49.080;11.896;2022-10-31T01:10:09;96760.00;;;9.20
33267;BMP180;19638;49.080;11.896;2022-10-31T01:14:14;96759.00;;;9.10
33267;BMP180;19638;49.080;11.896;2022-10-31T01:18:17;96769.00;;;9.00
33267;BMP180;19638;49.080;11.896;2022-10-31T01:26:57;96768.00;;;9.00
33267;BMP180;19638;49.080;11.896;2022-10-31T01:31:36;96760.00;;;8.90
33267;BMP180;19638;49.080;11.896;2022-10-31T01:35:39;96758.00;;;8.80
33267;BMP180;19638;49.080;11.896;2022-10-31T01:39:42;96748.00;;;8.70
33267;BMP180;19638;49.080;11.896;2022-10-31T01:48:28;96758.00;;;8.80
33267;BMP180;19638;49.080;11.896;2022-10-31T01:52:36;96756.00;;;8.70
33267;BMP180;19638;49.080;11.896;2022-10-31T01:56:44;96751.00;;;8.70
33267;BMP180;19638;49.080;11.896;2022-10-31T02:00:52;96746.00;;;8.60
33267;BMP180;19638;49.080;11.896;2022-10-31T02:05:29;96744.00;;;8.50
33267;BMP180;19638;49.080;11.896;2022-10-31T02:09:34;96760.00;;;8.50
33267;BMP180;19638;49.080;11.896;2022-10-31T02:14:08;96751.00;;;8.50
33267;BMP180;19638;49.080;11.896;2022-10-31T02:18:11;96763.00;;;8.60
33267;BMP180;19638;49.080;11.896;2022-10-31T02:22:20;96765.00;;;8.60
33267;BMP180;19638;49.080;11.896;2022-10-31T02:27:00;96765.00;;;8.50
33267;BMP180;19638;49.080;11.896;2022-10-31T02:31:20;96756.00;;;8.30
33267;BMP180;19638;49.080;11.896;2022-10-31T02:35:34;96757.00;;;8.30
33267;BMP180;19638;49.080;11.896;2022-10-31T02:44:43;96764.00;;;8.40
33267;BMP180;19638;49.080;11.896;2022-10-31T02:49:17;96761.00;;;8.30
33267;BMP180;19638;49.080;11.896;2022-10-31T02:53:22;96759.00;;;8.20
33267;BMP180;19638;49.080;11.896;2022-10-31T02:57:27;96761.00;;;8.20
33267;BMP180;19638;49.080;11.896;2022-10-31T03:02:15;96766.00;;;8.10
33267;BMP180;19638;49.080;11.896;2022-10-31T03:06:25;96765.00;;;8.10
33267;BMP180;19638;49.080;11.896;2022-10-31T03:10:35;96771.00;;;8.10
33267;BMP180;19638;49.080;11.896;2022-10-31T03:14:49;96767.00;;;8.10
33267;BMP180;19638;49.080;11.896;2022-10-31T03:18:59;96763.00;;;8.10
33267;BMP180;19638;49.080;11.896;2022-10-31T03:23:32;96771.00;;;8.00
33267;BMP180;19638;49.080;11.896;2022-10-31T03:27:37;96772.00;;;8.00
33267;BMP180;19638;49.080;11.896;2022-10-31T03:31:45;96768.00;;;8.00
33267;BMP180;19638;49.080;11.896;2022-10-31T03:35:52;96774.00;;;8.10
33267;BMP180;19638;49.080;11.896;2022-10-31T03:39:58;96782.00;;;8.10
33267;BMP180;19638;49.080;11.896;2022-10-31T03:49:10;96785.00;;;8.00
33267;BMP180;19638;49.080;11.896;2022-10-31T03:53:16;96794.00;;;8.00
33267;BMP180;19638;49.080;11.896;2022-10-31T03:57:27;96784.00;;;8.00
33267;BMP180;19638;49.080;11.896;2022-10-31T04:01:38;96782.00;;;8.00
33267;BMP180;19638;49.080;11.896;2022-10-31T04:05:45;96781.00;;;8.00
33267;BMP180;19638;49.080;11.896;2022-10-31T04:09:50;96781.00;;;7.90
33267;BMP180;19638;49.080;11.896;2022-10-31T04:13:57;96772.00;;;7.80
33267;BMP180;19638;49.080;11.896;2022-10-31T04:18:04;96774.00;;;7.80
33267;BMP180;19638;49.080;11.896;2022-10-31T04:22:38;96770.00;;;7.70
33267;BMP180;19638;49.080;11.896;2022-10-31T04:31:53;96767.00;;;7.40
33267;BMP180;19638;49.080;11.896;2022-10-31T04:35:56;96762.00;;;7.50
33267;BMP180;19638;49.080;11.896;2022-10-31T04:39:59;96771.00;;;7.50
33267;BMP180;19638;49.080;11.896;2022-10-31T04:44:02;96766.00;;;7.60
33267;BMP180;19638;49.080;11.896;2022-10-31T04:48:40;96762.00;;;7.60
33267;BMP180;19638;49.080;11.896;2022-10-31T04:53:14;96771.00;;;7.60
33267;BMP180;19638;49.080;11.896;2022-10-31T04:57:51;96768.00;;;7.70
33267;BMP180;19638;49.080;11.896;2022-10-31T05:02:31;96774.00;;;7.70
33267;BMP180;19638;49.080;11.896;2022-10-31T05:07:09;96775.00;;;7.70
33267;BMP180;19638;49.080;11.896;2022-10-31T05:11:12;96769.00;;;7.80
33267;BMP180;19638;49.080;11.896;2022-10-31T05:15:49;96774.00;;;7.70
33267;BMP180;19638;49.080;11.896;2022-10-31T05:20:27;96773.00;;;7.70
33267;BMP180;19638;49.080;11.896;2022-10-31T05:25:03;96769.00;;;7.70
33267;BMP180;19638;49.080;11.896;2022-10-31T05:29:37;96769.00;;;7.70
33267;BMP180;19638;49.080;11.896;2022-10-31T05:34:14;96759.00;;;7.70
33267;BMP180;19638;49.080;11.896;2022-10-31T05:38:51;96761.00;;;7.70
33267;BMP180;19638;49.080;11.896;2022-10-31T05:43:29;96758.00;;;7.80
33267;BMP180;19638;49.080;11.896;2022-10-31T05:48:06;96757.00;;;7.80
33267;BMP180;19638;49.080;11.896;2022-10-31T05:52:43;96759.00;;;7.90
33267;BMP180;19638;49.080;11.896;2022-10-31T06:01:58;96771.00;;;7.90
33267;BMP180;19638;49.080;11.896;2022-10-31T06:06:32;96777.00;;;8.00
33267;BMP180;19638;49.080;11.896;2022-10-31T06:10:51;96783.00;;;7.90
33267;BMP180;19638;49.080;11.896;2022-10-31T06:15:26;96779.00;;;7.90
33267;BMP180;19638;49.080;11.896;2022-10-31T06:29:18;96779.00;;;8.00
33267;BMP180;19638;49.080;11.896;2022-10-31T06:33:52;96783.00;;;8.00
33267;BMP180;19638;49.080;11.896;2022-10-31T06:48:05;96798.00;;;8.30
33267;BMP180;19638;49.080;11.896;2022-10-31T06:52:39;96797.00;;;8.40
33267;BMP180;19638;49.080;11.896;2022-10-31T06:57:16;96806.00;;;8.50
33267;BMP180;19638;49.080;11.896;2022-10-31T07:01:53;96803.00;;;8.60
33267;BMP180;19638;49.080;11.896;2022-10-31T07:06:31;96803.00;;;8.70
33267;BMP180;19638;49.080;11.896;2022-10-31T07:11:05;96810.00;;;8.80
33267;BMP180;19638;49.080;11.896;2022-10-31T07:20:19;96805.00;;;9.00
33267;BMP180;19638;49.080;11.896;2022-10-31T07:24:58;96812.00;;;9.10
33267;BMP180;19638;49.080;11.896;2022-10-31T07:34:06;96808.00;;;9.40
33267;BMP180;19638;49.080;11.896;2022-10-31T07:38:43;96809.00;;;9.60
33267;BMP180;19638;49.080;11.896;2022-10-31T07:48:20;96816.00;;;9.90
33267;BMP180;19638;49.080;11.896;2022-10-31T07:52:58;96819.00;;;10.10
33267;BMP180;19638;49.080;11.896;2022-10-31T07:57:29;96807.00;;;10.20
33267;BMP180;19638;49.080;11.896;2022-10-31T08:02:07;96802.00;;;10.40
33267;BMP180;19638;49.080;11.896;2022-10-31T08:11:19;96792.00;;;10.80
33267;BMP180;19638;49.080;11.896;2022-10-31T08:20:29;96788.00;;;11.30
33267;BMP180;19638;49.080;11.896;2022-10-31T08:25:07;96781.00;;;11.60
33267;BMP180;19638;49.080;11.896;2022-10-31T08:29:11;96773.00;;;11.80
33267;BMP180;19638;49.080;11.896;2022-10-31T08:33:45;96774.00;;;12.00
33267;BMP180;19638;49.080;11.896;2022-10-31T08:38:22;96760.00;;;12.20
33267;BMP180;19638;49.080;11.896;2022-10-31T08:42:59;96773.00;;;12.40
33267;BMP180;19638;49.080;11.896;2022-10-31T08:47:39;96774.00;;;12.60
33267;BMP180;19638;49.080;11.896;2022-10-31T08:52:16;96765.00;;;12.80
33267;BMP180;19638;49.080;11.896;2022-10-31T08:56:53;96770.00;;;12.90
33267;BMP180;19638;49.080;11.896;2022-10-31T09:01:30;96773.00;;;13.20
33267;BMP180;19638;49.080;11.896;2022-10-31T09:10:45;96774.00;;;13.60
33267;BMP180;19638;49.080;11.896;2022-10-31T09:15:22;96779.00;;;14.00
33267;BMP180;19638;49.080;11.896;2022-10-31T09:19:59;96770.00;;;14.40
33267;BMP180;19638;49.080;11.896;2022-10-31T09:29:14;96773.00;;;14.90
33267;BMP180;19638;49.080;11.896;2022-10-31T09:33:48;96770.00;;;15.20
33267;BMP180;19638;49.080;11.896;2022-10-31T09:48:05;96775.00;;;15.60
33267;BMP180;19638;49.080;11.896;2022-10-31T09:52:36;96765.00;;;15.80
33267;BMP180;19638;49.080;11.896;2022-10-31T09:57:13;96766.00;;;15.90
33267;BMP180;19638;49.080;11.896;2022-10-31T10:01:49;96761.00;;;16.10
33267;BMP180;19638;49.080;11.896;2022-10-31T10:06:27;96754.00;;;16.10
33267;BMP180;19638;49.080;11.896;2022-10-31T10:11:05;96742.00;;;16.00
33267;BMP180;19638;49.080;11.896;2022-10-31T10:15:46;96746.00;;;15.60
33267;BMP180;19638;49.080;11.896;2022-10-31T10:20:17;96751.00;;;15.40
33267;BMP180;19638;49.080;11.896;2022-10-31T10:24:59;96736.00;;;15.30
33267;BMP180;19638;49.080;11.896;2022-10-31T10:29:33;96745.00;;;15.50
33267;BMP180;19638;49.080;11.896;2022-10-31T10:38:48;96730.00;;;15.70
33267;BMP180;19638;49.080;11.896;2022-10-31T10:48:03;96723.00;;;16.00
33267;BMP180;19638;49.080;11.896;2022-10-31T10:52:35;96717.00;;;16.20
33267;BMP180;19638;49.080;11.896;2022-10-31T10:57:19;96716.00;;;16.40
33267;BMP180;19638;49.080;11.896;2022-10-31T11:01:48;96713.00;;;16.60
33267;BMP180;19638;49.080;11.896;2022-10-31T11:06:25;96703.00;;;16.80
33267;BMP180;19638;49.080;11.896;2022-10-31T11:10:59;96703.00;;;17.00
33267;BMP180;19638;49.080;11.896;2022-10-31T11:24:48;96686.00;;;17.50
33267;BMP180;19638;49.080;11.896;2022-10-31T11:29:26;96682.00;;;17.70
33267;BMP180;19638;49.080;11.896;2022-10-31T11:38:39;96671.00;;;18.20
33267;BMP180;19638;49.080;11.896;2022-10-31T11:43:18;96669.00;;;18.50
33267;BMP180;19638;49.080;11.896;2022-10-31T11:47:53;96665.00;;;18.60
33267;BMP180;19638;49.080;11.896;2022-10-31T11:52:36;96661.00;;;18.60
33267;BMP180;19638;49.080;11.896;2022-10-31T12:01:50;96651.00;;;18.60
33267;BMP180;19638;49.080;11.896;2022-10-31T12:06:23;96635.00;;;18.70
33267;BMP180;19638;49.080;11.896;2022-10-31T12:10:58;96642.00;;;18.60
33267;BMP180;19638;49.080;11.896;2022-10-31T12:15:32;96631.00;;;18.50
33267;BMP180;19638;49.080;11.896;2022-10-31T12:25:02;96625.00;;;18.60
33267;BMP180;19638;49.080;11.896;2022-10-31T12:29:29;96616.00;;;18.90
33267;BMP180;19638;49.080;11.896;2022-10-31T12:34:06;96615.00;;;19.00
33267;BMP180;19638;49.080;11.896;2022-10-31T12:38:41;96615.00;;;19.10
33267;BMP180;19638;49.080;11.896;2022-10-31T12:43:16;96613.00;;;19.10
33267;BMP180;19638;49.080;11.896;2022-10-31T12:47:53;96611.00;;;19.00
33267;BMP180;19638;49.080;11.896;2022-10-31T12:52:29;96600.00;;;18.90
33267;BMP180;19638;49.080;11.896;2022-10-31T12:57:03;96592.00;;;18.80
33267;BMP180;19638;49.080;11.896;2022-10-31T13:01:39;96594.00;;;18.80
33267;BMP180;19638;49.080;11.896;2022-10-31T13:05:47;96587.00;;;18.80
33267;BMP180;19638;49.080;11.896;2022-10-31T13:10:00;96580.00;;;18.80
33267;BMP180;19638;49.080;11.896;2022-10-31T13:14:26;96577.00;;;18.80
33267;BMP180;19638;49.080;11.896;2022-10-31T13:19:10;96577.00;;;18.80
33267;BMP180;19638;49.080;11.896;2022-10-31T13:23:40;96581.00;;;19.00
33267;BMP180;19638;49.080;11.896;2022-10-31T13:28:21;96577.00;;;19.00
33267;BMP180;19638;49.080;11.896;2022-10-31T13:32:55;96567.00;;;19.20
33267;BMP180;19638;49.080;11.896;2022-10-31T13:37:35;96568.00;;;19.20
33267;BMP180;19638;49.080;11.896;2022-10-31T13:51:46;96553.00;;;19.30
33267;BMP180;19638;49.080;11.896;2022-10-31T13:56:23;96550.00;;;19.30
33267;BMP180;19638;49.080;11.896;2022-10-31T14:01:11;96541.00;;;19.30
33267;BMP180;19638;49.080;11.896;2022-10-31T14:05:36;96536.00;;;19.20
33267;BMP180;19638;49.080;11.896;2022-10-31T14:10:20;96532.00;;;19.20
33267;BMP180;19638;49.080;11.896;2022-10-31T14:14:50;96526.00;;;19.10
33267;BMP180;19638;49.080;11.896;2022-10-31T14:19:25;96527.00;;;19.00
33267;BMP180;19638;49.080;11.896;2022-10-31T14:24:02;96523.00;;;19.10
33267;BMP180;19638;49.080;11.896;2022-10-31T14:28:37;96522.00;;;19.10
33267;BMP180;19638;49.080;11.896;2022-10-31T14:33:17;96520.00;;;19.20
33267;BMP180;19638;49.080;11.896;2022-10-31T14:42:32;96506.00;;;19.20
33267;BMP180;19638;49.080;11.896;2022-10-31T14:52:12;96494.00;;;19.20
33267;BMP180;19638;49.080;11.896;2022-10-31T14:56:48;96490.00;;;19.10
33267;BMP180;19638;49.080;11.896;2022-10-31T15:01:24;96495.00;;;19.10
33267;BMP180;19638;49.080;11.896;2022-10-31T15:05:59;96484.00;;;19.00
33267;BMP180;19638;49.080;11.896;2022-10-31T15:10:06;96480.00;;;19.00
33267;BMP180;19638;49.080;11.896;2022-10-31T15:14:23;96479.00;;;18.90
33267;BMP180;19638;49.080;11.896;2022-10-31T15:18:59;96473.00;;;18.70
33267;BMP180;19638;49.080;11.896;2022-10-31T15:23:33;96471.00;;;18.50
33267;BMP180;19638;49.080;11.896;2022-10-31T15:28:20;96468.00;;;18.30
33267;BMP180;19638;49.080;11.896;2022-10-31T15:32:51;96460.00;;;18.10
33267;BMP180;19638;49.080;11.896;2022-10-31T15:37:27;96459.00;;;17.80
33267;BMP180;19638;49.080;11.896;2022-10-31T15:42:04;96448.00;;;17.40
33267;BMP180;19638;49.080;11.896;2022-10-31T15:46:09;96437.00;;;17.00
33267;BMP180;19638;49.080;11.896;2022-10-31T15:50:45;96444.00;;;16.70
33267;BMP180;19638;49.080;11.896;2022-10-31T15:55:20;96436.00;;;16.40
33267;BMP180;19638;49.080;11.896;2022-10-31T15:59:58;96437.00;;;16.30
33267;BMP180;19638;49.080;11.896;2022-10-31T16:04:05;96430.00;;;16.20
33267;BMP180;19638;49.080;11.896;2022-10-31T16:08:44;96425.00;;;16.10
33267;BMP180;19638;49.080;11.896;2022-10-31T16:12:48;96427.00;;;16.10
33267;BMP180;19638;49.080;11.896;2022-10-31T16:16:52;96432.00;;;16.10
33267;BMP180;19638;49.080;11.896;2022-10-31T16:21:29;96437.00;;;16.00
33267;BMP180;19638;49.080;11.896;2022-10-31T16:25:36;96442.00;;;15.90
33267;BMP180;19638;49.080;11.896;2022-10-31T16:29:42;96449.00;;;15.70
33267;BMP180;19638;49.080;11.896;2022-10-31T16:33:45;96449.00;;;15.60
33267;BMP180;19638;49.080;11.896;2022-10-31T16:37:50;96431.00;;;15.40
33267;BMP180;19638;49.080;11.896;2022-10-31T16:42:27;96434.00;;;15.20
33267;BMP180;19638;49.080;11.896;2022-10-31T16:46:30;96423.00;;;15.20
33267;BMP180;19638;49.080;11.896;2022-10-31T16:51:06;96414.00;;;15.30
33267;BMP180;19638;49.080;11.896;2022-10-31T16:55:15;96406.00;;;15.40
33267;BMP180;19638;49.080;11.896;2022-10-31T16:59:18;96415.00;;;15.60
33267;BMP180;19638;49.080;11.896;2022-10-31T17:03:21;96429.00;;;15.60
33267;BMP180;19638;49.080;11.896;2022-10-31T17:12:24;96432.00;;;15.50
33267;BMP180;19638;49.080;11.896;2022-10-31T17:16:29;96439.00;;;15.40
33267;BMP180;19638;49.080;11.896;2022-10-31T17:20:32;96435.00;;;15.20
33267;BMP180;19638;49.080;11.896;2022-10-31T17:24:42;96432.00;;;14.90
33267;BMP180;19638;49.080;11.896;2022-10-31T17:33:17;96427.00;;;14.20
33267;BMP180;19638;49.080;11.896;2022-10-31T17:37:51;96418.00;;;13.90
33267;BMP180;19638;49.080;11.896;2022-10-31T17:42:28;96417.00;;;13.60
33267;BMP180;19638;49.080;11.896;2022-10-31T17:46:31;96420.00;;;13.30
33267;BMP180;19638;49.080;11.896;2022-10-31T17:50:36;96421.00;;;13.20
33267;BMP180;19638;49.080;11.896;2022-10-31T17:55:13;96419.00;;;13.00
33267;BMP180;19638;49.080;11.896;2022-10-31T17:59:16;96417.00;;;12.90
33267;BMP180;19638;49.080;11.896;2022-10-31T18:03:19;96415.00;;;12.80
33267;BMP180;19638;49.080;11.896;2022-10-31T18:07:57;96417.00;;;12.70
33267;BMP180;19638;49.080;11.896;2022-10-31T18:12:05;96415.00;;;12.60
33267;BMP180;19638;49.080;11.896;2022-10-31T18:16:42;96407.00;;;12.50
33267;BMP180;19638;49.080;11.896;2022-10-31T18:20:45;96419.00;;;12.40
33267;BMP180;19638;49.080;11.896;2022-10-31T18:24:49;96409.00;;;12.30
33267;BMP180;19638;49.080;11.896;2022-10-31T18:29:23;96398.00;;;12.20
33267;BMP180;19638;49.080;11.896;2022-10-31T18:33:26;96400.00;;;12.20
33267;BMP180;19638;49.080;11.896;2022-10-31T18:37:29;96393.00;;;12.00
33267;BMP180;19638;49.080;11.896;2022-10-31T18:42:07;96402.00;;;11.90
33267;BMP180;19638;49.080;11.896;2022-10-31T18:46:12;96411.00;;;11.90
33267;BMP180;19638;49.080;11.896;2022-10-31T18:50:16;96405.00;;;11.80
33267;BMP180;19638;49.080;11.896;2022-10-31T18:54:19;96404.00;;;11.80
33267;BMP180;19638;49.080;11.896;2022-10-31T18:58:58;96399.00;;;11.60
33267;BMP180;19638;49.080;11.896;2022-10-31T19:03:04;96398.00;;;11.50
33267;BMP180;19638;49.080;11.896;2022-10-31T19:07:07;96392.00;;;11.40
33267;BMP180;19638;49.080;11.896;2022-10-31T19:11:12;96384.00;;;11.20
33267;BMP180;19638;49.080;11.896;2022-10-31T19:15:47;96389.00;;;11.10
33267;BMP180;19638;49.080;11.896;2022-10-31T19:19:50;96384.00;;;11.00
33267;BMP180;19638;49.080;11.896;2022-10-31T19:24:30;96386.00;;;10.90
33267;BMP180;19638;49.080;11.896;2022-10-31T19:28:35;96375.00;;;10.90
33267;BMP180;19638;49.080;11.896;2022-10-31T19:32:40;96379.00;;;10.80
33267;BMP180;19638;49.080;11.896;2022-10-31T19:37:17;96381.00;;;10.70
33267;BMP180;19638;49.080;11.896;2022-10-31T19:41:21;96383.00;;;10.70
33267;BMP180;19638;49.080;11.896;2022-10-31T19:45:56;96378.00;;;10.70
33267;BMP180;19638;49.080;11.896;2022-10-31T19:50:00;96384.00;;;10.70
33267;BMP180;19638;49.080;11.896;2022-10-31T19:54:36;96378.00;;;10.60
33267;BMP180;19638;49.080;11.896;2022-10-31T19:58:40;96370.00;;;10.50
33267;BMP180;19638;49.080;11.896;2022-10-31T20:03:17;96367.00;;;10.40
33267;BMP180;19638;49.080;11.896;2022-10-31T20:07:55;96366.00;;;10.30
33267;BMP180;19638;49.080;11.896;2022-10-31T20:11:59;96352.00;;;10.30
33267;BMP180;19638;49.080;11.896;2022-10-31T20:16:35;96358.00;;;10.10
33267;BMP180;19638;49.080;11.896;2022-10-31T20:20:39;96358.00;;;10.10
33267;BMP180;19638;49.080;11.896;2022-10-31T20:25:17;96366.00;;;10.10
33267;BMP180;19638;49.080;11.896;2022-10-31T20:29:20;96372.00;;;10.10
33267;BMP180;19638;49.080;11.896;2022-10-31T20:33:24;96376.00;;;10.10
33267;BMP180;19638;49.080;11.896;2022-10-31T20:37:27;96383.00;;;10.10
33267;BMP180;19638;49.080;11.896;2022-10-31T20:41:35;96375.00;;;10.10
33267;BMP180;19638;49.080;11.896;2022-10-31T20:45:38;96361.00;;;10.10
33267;BMP180;19638;49.080;11.896;2022-10-31T20:54:39;96365.00;;;9.80
33267;BMP180;19638;49.080;11.896;2022-10-31T20:59:14;96360.00;;;9.80
33267;BMP180;19638;49.080;11.896;2022-10-31T21:03:20;96364.00;;;9.80
33267;BMP180;19638;49.080;11.896;2022-10-31T21:07:54;96365.00;;;9.80
33267;BMP180;19638;49.080;11.896;2022-10-31T21:11:57;96362.00;;;9.70
33267;BMP180;19638;49.080;11.896;2022-10-31T21:16:36;96358.00;;;9.70
33267;BMP180;19638;49.080;11.896;2022-10-31T21:20:40;96357.00;;;9.80
33267;BMP180;19638;49.080;11.896;2022-10-31T21:25:15;96360.00;;;9.70
33267;BMP180;19638;49.080;11.896;2022-10-31T21:29:19;96357.00;;;9.70
33267;BMP180;19638;49.080;11.896;2022-10-31T21:33:54;96362.00;;;9.70
33267;BMP180;19638;49.080;11.896;2022-10-31T21:37:59;96352.00;;;9.70
33267;BMP180;19638;49.080;11.896;2022-10-31T21:42:33;96346.00;;;9.80
33267;BMP180;19638;49.080;11.896;2022-10-31T21:47:09;96348.00;;;9.80
33267;BMP180;19638;49.080;11.896;2022-10-31T21:51:15;96347.00;;;10.00
33267;BMP180;19638;49.080;11.896;2022-10-31T21:55:18;96350.00;;;10.00
33267;BMP180;19638;49.080;11.896;2022-10-31T21:59:55;96347.00;;;10.00
33267;BMP180;19638;49.080;11.896;2022-10-31T22:03:58;96339.00;;;10.10
33267;BMP180;19638;49.080;11.896;2022-10-31T22:08:03;96335.00;;;10.00
33267;BMP180;19638;49.080;11.896;2022-10-31T22:12:07;96336.00;;;10.00
33267;BMP180;19638;49.080;11.896;2022-10-31T22:16:11;96331.00;;;10.00
33267;BMP180;19638;49.080;11.896;2022-10-31T22:20:15;96334.00;;;9.90
33267;BMP180;19638;49.080;11.896;2022-10-31T22:24:19;96332.00;;;9.90
33267;BMP180;19638;49.080;11.896;2022-10-31T22:28:22;96329.00;;;9.80
33267;BMP180;19638;49.080;11.896;2022-10-31T22:32:25;96330.00;;;9.70
33267;BMP180;19638;49.080;11.896;2022-10-31T22:36:29;96334.00;;;9.70
33267;BMP180;19638;49.080;11.896;2022-10-31T22:41:05;96332.00;;;9.60
33267;BMP180;19638;49.080;11.896;2022-10-31T22:45:08;96325.00;;;9.60
33267;BMP180;19638;49.080;11.896;2022-10-31T22:49:45;96317.00;;;9.50
33267;BMP180;19638;49.080;11.896;2022-10-31T22:54:20;96315.00;;;9.40
33267;BMP180;19638;49.080;11.896;2022-10-31T22:58:24;96317.00;;;9.40
33267;BMP180;19638;49.080;11.896;2022-10-31T23:02:58;96317.00;;;9.40
33267;BMP180;19638;49.080;11.896;2022-10-31T23:07:02;96307.00;;;9.40
33267;BMP180;19638;49.080;11.896;2022-10-31T23:11:16;96303.00;;;9.40
33267;BMP180;19638;49.080;11.896;2022-10-31T23:15:26;96311.00;;;9.60
33267;BMP180;19638;49.080;11.896;2022-10-31T23:19:29;96312.00;;;9.70
33267;BMP180;19638;49.080;11.896;2022-10-31T23:24:03;96318.00;;;9.90
33267;BMP180;19638;49.080;11.896;2022-10-31T23:28:06;96319.00;;;10.10
33267;BMP180;19638;49.080;11.896;2022-10-31T23:32:14;96313.00;;;10.30
33267;BMP180;19638;49.080;11.896;2022-10-31T23:36:33;96320.00;;;10.40
33267;BMP180;19638;49.080;11.896;2022-10-31T23:40:36;96334.00;;;10.60
33267;BMP180;19638;49.080;11.896;2022-10-31T23:44:41;96336.00;;;10.50
33267;BMP180;19638;49.080;11.896;2022-10-31T23:49:16;96331.00;;;10.20
33267;BMP180;19638;49.080;11.896;2022-10-31T23:53:19;96333.00;;;10.00
33267;BMP180;19638;49.080;11.896;2022-10-31T23:57:22;96345.00;;;9.70
